Airfield :
LOGIN :

Register | Disclaimer

   EN    FR    IT 

 










Legend :    VFR   Marginal VFR   IFR   Intensive IFR   Very Intensive IFR
Visi :
Ceiling :
>= 8 km
>= 3000ft
5 to 8 km
1000 to 3000 ft
1500m to 5 km
500 to 1000 ft
800 to 1500m
200 to 500 ft
< 800m
< 200 ft
Symbols :   Thunderstorms  Fog  Heavy snow  Heavy precipitations  Wind > 20 kt
SIGMETs :     Misc.  Thunderstorms  Icing  Turbulence  Mountain Waves  Volcanic Ashes







- Airport Elevation : 239 ft
- IATA code : VRN


LIPX - Villafranca Int. Verona

CURRENT METAR :
  • 211620Z 11007KT CAVOK 22/05 Q1017

EXPIRED METARs :
  • 211550Z 11007KT 070V140 CAVOK 22/05 Q1017
  • 211520Z 10006KT 070V140 CAVOK 23/04 Q1018
  • 211450Z 11009KT CAVOK 23/04 Q1018
  • 211420Z 11008KT 070V140 CAVOK 23/05 Q1018
  • 211350Z 12008KT 090V150 CAVOK 23/04 Q1018

TAF TAF LIPX
Valid from the 21 at 15:00 until the 22 at 00:00 UTC


211400Z 2115/2124 VRB05KT CAVOK
No reported NOTAMs for that airfield.



MET'MAP, your aeronautical weather chart ! - Copyright ORBIFLY December 2007 - Disclaimer

ORBIFLY MET'MAP TEAM :

Programming & Development : Alexandra Zaïnal
Concept & Development : Baudouin d'Aumeries
Co-Development & Prog : Marc-Olivier Méhu
Technical & hardware support : Manuel Goepfert

Contact : metmap@orbifly.com




SOURCES & CREDITS :

   NOAA